Aeroporto :
LOGIN :

Iscrizione | Disclaimer

   EN    FR    IT 

 










Sommario :    VFR   VFR Marginale   IFR   IFR Intensivo   IFR Molto Intensivo
Visibilità : 
Base nubi : 
>= 8 km
>= 3000ft
5 / 8 km
1000 / 3000 ft
1500m / 5 km
500 / 1000 ft
800 / 1500m
200 / 500 ft
< 800m
< 200 ft
Simboli :   Temporali  Nebbia  Neve Forte  Precipitazioni Forti  Vento > 20 kt
SIGMETs :   Varie  Temporali  Ghiacco  Turbolenza  Onda orograficha  Ceneri Vulcaniche






- Altitudine del aeroporto : 26 ft
- Codice IATA : BIA


LFKB - Bastia

ULTIMO METAR :
  • 290330Z AUTO 21007KT CAVOK 08/05 Q1014 NOSIG

METARs OBSOLETI :
  • 290300Z AUTO 21005KT CAVOK 08/05 Q1014 NOSIG
  • 290230Z AUTO 22006KT CAVOK 09/06 Q1014 NOSIG
  • 290200Z AUTO 21010KT CAVOK 10/06 Q1014 NOSIG
  • 290130Z AUTO 20010KT CAVOK 10/06 Q1014 NOSIG
  • 290100Z AUTO 21008KT CAVOK 10/06 Q1014 NOSIG

TAF TAF LFKB
Valido dal 29 a 03 ore il 30 a 03 ore UTC


290200Z 2903/3003 22006KT 9999 FEW030 TX16/2912Z TN06/2904Z
BECMG 2908/2910 12010KT
TEMPO 2911/2915 FEW035TCU
BECMG 2918/2920 22006KT
ATIS : +33 4 95 59 19 40



MetMap, La meteo Aeronautica in un colpo d'occhio ! - Copyright ORBIFLY Dicembre 2007 - Disclaimer

ORBIFLY MET'MAP TEAM :

Programmazione e sviluppo : Alexandra Zaïnal
Concezione : Baudouin d'Aumeries
Aiuto per la programmazione : Marc-Olivier Méhu
Supporto tecnico e logistico : Manuel Goepfert
Aiuto per la traduzione : Arnaldo La Scala

Contatto : metmap@orbifly.com




FONTI E CREDITI :

   NOAA